x

South Brooks (46132) Wave Buoy

9:00 - Mon 25th Sep 2017 All times are PDT. -7 hours from GMT.

  • Sig Wave height 6.9ft
  • Peak Period 7s
  • Wind
    16mph, 22mph gusts
  • Sea Temp 55°f
  • Aire Temp 58°f
  • Sea Pressure 1013.9mb
  • South Brooks
  • South Brooks

More Historic Weather Station data

Upgrade to MSW Pro to gain access to the past 30 days of data for over 8000 Wavebouys and Weather Stations around the globe.

Join

Comparision Forecast

View Surf forecast
   
lun 09/25 9:00 7ft 7s 16 22 mph 1013.9mb 55f 58f
8:00 6.5ft 7s 18 22 mph 1013.5mb 55f 58f
7:00 6ft 9s 18 20 mph 1013.5mb 55f 58f
6:00 6ft 9s 18 22 mph 1013.1mb 55f 58f
5:00 6ft 9s 20 22 mph 1013.3mb 55f 58f
4:00 6ft 10s 20 25 mph 1013.6mb 55f 58f
3:00 5ft 8s 18 20 mph 1014.4mb 55f 58f
2:00 5ft 10s 18 20 mph 1015.2mb 55f 58f
1:00 5ft 9s 16 20 mph 1015.5mb 56f 59f
12:00 4.5ft 9s 16 18 mph 1016.3mb 56f 59f
dom 09/24 11:00 5ft 9s 13 18 mph 1016.8mb 56f 58f
10:00 5ft 9s 9 11 mph 1017.3mb 56f 58f
9:00 5ft 10s 7 9 mph 1017.5mb 56f 56f
8:00 4.5ft 9s 4 7 mph 1018mb 56f 56f
7:00 4.5ft 8s 9 13 mph 1018.3mb 56f 58f
6:00 4.5ft 10s 7 7 mph 1018.6mb 56f 58f
5:00 4ft 9s 11 13 mph 1019mb 56f 58f
4:00 4.5ft 9s 9 11 mph 1019.4mb 57f 57f
3:00 4.5ft 10s 9 9 mph 1019.9mb 56f 58f
2:00 4.5ft 11s 7 9 mph 1020.3mb 57f 58f
1:00 4.5ft 8s 7 9 mph 1020.8mb 56f 58f
12:00 4.5ft 10s 4 7 mph 1020.7mb 56f 58f
11:00 4.5ft 10s 9 9 mph 1020.7mb 56f 58f
10:00 4.5ft 8s 4 7 mph 1020.6mb 56f 57f
9:00 4ft 8s 4 4 mph 1020.8mb 56f 57f
8:00 4ft 11s 4 4 mph 1020.8mb 56f 57f
7:00 4ft 11s 2 4 mph 1020.6mb 56f 57f
6:00 4ft 8s 4 4 mph 1020.3mb 56f 57f
5:00 3.5ft 11s 4 7 mph 1020.4mb 56f 58f
4:00 4ft 11s 2 4 mph 1020.6mb 56f 57f
3:00 4ft 10s 4 4 mph 1020.8mb 56f 57f
2:00 4.5ft 11s 2 2 mph 1020.9mb 56f 56f
1:00 4ft 10s 9 13 mph 1021.2mb 56f 57f
12:00 4ft 11s 4 7 mph 1020.8mb 56f 57f
sáb 09/23 11:00 4ft 12s 2 4 mph 1020.8mb 56f 57f
10:00 4ft 7s 7 7 mph 1020.9mb 56f 57f
9:00 3.5ft 7s 7 9 mph 1020.8mb 56f 56f
8:00 3.5ft 6s 4 7 mph 1020.6mb 56f 56f
7:00 3.5ft 6s 7 7 mph 1020.4mb 56f 56f
6:00 4ft 7s 4 7 mph 1020.1mb 57f 56f
5:00 4ft 6s 7 7 mph 1020.5mb 57f 56f
4:00 3.5ft 7s 4 7 mph 1020.5mb 57f 57f
3:00 3.5ft 6s 7 7 mph 1020.4mb 57f 56f
2:00 3.5ft 6s 4 4 mph 1020.2mb 56f 56f
1:00 3.5ft 7s 7 7 mph 1020mb 56f 57f
12:00 3.5ft 7s 7 7 mph 1019.4mb 56f 56f
11:00 3.5ft 7s 9 9 mph 1019.2mb 56f 56f
10:00 3.5ft 6s 9 9 mph 1019mb 56f 56f
9:00 3.5ft 7s 9 11 mph 1018.6mb 56f 56f
8:00 3.5ft 6s 9 11 mph 1017.9mb 56f 56f
7:00 3.5ft 6s 9 11 mph 1017.5mb 56f 56f
6:00 3.5ft 6s 13 13 mph 1017.1mb 56f 56f
5:00 3ft 6s 11 13 mph 1016.6mb 56f 56f
4:00 3.5ft 6s 9 11 mph 1016.4mb 56f 55f
3:00 3.5ft 6s 7 9 mph 1016.4mb 56f 55f
2:00 3.5ft 7s 4 7 mph 1016.6mb 56f 55f
1:00 3.5ft 7s 7 9 mph 1016.8mb 56f 55f
12:00 3.5ft 12s 7 7 mph 1017.1mb 56f 56f
vie 09/22 11:00 3.5ft 7s 7 7 mph 1017.2mb 56f 56f
10:00 3.5ft 7s 7 9 mph 1017.4mb 56f 56f
9:00 3.5ft 7s 11 13 mph 1017.7mb 56f 56f
8:00 3.5ft 8s 11 13 mph 1018mb 56f 56f
7:00 4ft 13s 18 20 mph 1017.9mb 56f 56f
6:00 4ft 7s 16 20 mph 1018.1mb 56f 56f
5:00 4.5ft 8s 16 18 mph 1018.3mb 56f 56f
4:00 5ft 8s 18 20 mph 1018.2mb 56f 56f
3:00 5ft 8s 18 22 mph 1018.3mb 56f 56f
2:00 6ft 8s 18 22 mph 1018.3mb 56f 56f
1:00 5.5ft 7s 18 22 mph 1018.4mb 56f 56f
12:00 6ft 8s 18 22 mph 1018.2mb 56f 56f
11:00 6ft 8s 16 20 mph 1018.5mb 56f 56f
10:00 6ft 8s 18 22 mph 1018.6mb 56f 55f
9:00 6ft 8s 18 22 mph 1018.2mb 55f 55f
8:00 5.5ft 8s 22 27 mph 1018mb 55f 55f
7:00 5.5ft 8s 20 22 mph 1017.8mb 55f 55f
6:00 5.5ft 9s 20 25 mph 1017.7mb 55f 55f
5:00 5.5ft 9s 18 22 mph 1017.3mb 55f 55f
4:00 6ft 10s 18 22 mph 1017.5mb 55f 55f
3:00 6ft 9s 18 22 mph 1017.2mb 55f 55f
2:00 7ft 9s 18 22 mph 1017.4mb 55f 55f
1:00 7ft 9s 20 25 mph 1017.2mb 56f 55f
12:00 8ft 9s 20 25 mph 1017.1mb 56f 56f
jue 09/21 11:00 8ft 9s 20 25 mph 1016.9mb 56f 56f
10:00 8ft 9s 18 25 mph 1016.7mb 56f 56f
9:00 8ft 10s 20 22 mph 1016.5mb 56f 57f
8:00 8ft 10s 20 22 mph 1016.2mb 55f 56f
7:00 8ft 9s 22 25 mph 1015.9mb 55f 56f
6:00 8ft 10s 20 25 mph 1015.7mb 55f 57f